createdAt,value
2022-12-03T00:01:58.919Z,95.90
2022-12-03T00:04:28.422Z,75.10
2022-12-03T00:06:57.408Z,113.80
2022-12-03T00:09:26.313Z,89.90
2022-12-03T00:11:55.711Z,78.00
2022-12-03T00:14:26.363Z,91.40
2022-12-03T00:16:55.241Z,71.90
2022-12-03T00:19:24.621Z,97.30
2022-12-03T00:21:54.227Z,86.00
2022-12-03T00:24:23.642Z,84.10
2022-12-03T00:26:53.166Z,74.60
2022-12-03T00:29:23.086Z,98.50
2022-12-03T00:31:52.874Z,86.00
2022-12-03T00:34:22.772Z,90.30
2022-12-03T00:36:51.567Z,87.30
2022-12-03T00:39:20.557Z,71.30
2022-12-03T00:41:49.982Z,70.30
2022-12-03T00:44:19.974Z,98.50
2022-12-03T00:46:49.030Z,70.90
2022-12-03T00:49:18.584Z,80.80
2022-12-03T00:51:49.052Z,69.70
2022-12-03T00:56:47.796Z,80.00
2022-12-03T00:59:18.175Z,109.70
2022-12-03T01:01:47.366Z,74.50
2022-12-03T01:04:17.448Z,67.70
2022-12-03T01:06:47.264Z,66.30
2022-12-03T01:11:46.283Z,89.10
2022-12-03T01:14:17.956Z,89.20
2022-12-03T01:16:48.451Z,65.70
2022-12-03T01:19:18.791Z,63.60
2022-12-03T01:26:49.012Z,62.40
2022-12-03T01:29:18.338Z,71.70
2022-12-03T01:32:06.376Z,66.40
2022-12-03T01:34:35.925Z,82.50
2022-12-03T01:37:05.289Z,98.20
2022-12-03T01:39:34.495Z,67.10
2022-12-03T01:42:05.114Z,92.90
2022-12-03T01:44:37.021Z,102.40
2022-12-03T01:47:11.929Z,74.60
2022-12-03T01:50:00.546Z,94.30
2022-12-03T01:52:35.285Z,86.10
2022-12-03T01:55:12.205Z,63.10
2022-12-03T01:57:45.252Z,67.20
2022-12-03T02:00:21.619Z,58.00
2022-12-03T02:03:02.200Z,71.50
2022-12-03T02:05:33.996Z,59.20
2022-12-03T02:08:42.795Z,67.10
2022-12-03T02:11:32.447Z,168.60
2022-12-03T02:14:11.046Z,60.10
2022-12-03T02:16:42.622Z,58.70
2022-12-03T02:19:26.797Z,77.80
2022-12-03T02:22:17.046Z,54.00
2022-12-03T02:25:01.007Z,56.10
2022-12-03T02:27:30.749Z,77.90
2022-12-03T02:30:00.227Z,53.40
2022-12-03T02:32:31.231Z,45.30
2022-12-03T02:35:02.234Z,41.90
2022-12-03T02:37:38.746Z,41.10
2022-12-03T02:40:13.604Z,44.20
2022-12-03T02:42:46.205Z,42.30
2022-12-03T02:45:28.006Z,50.20
2022-12-03T02:48:20.951Z,44.70
2022-12-03T02:50:58.090Z,43.20
2022-12-03T02:53:33.457Z,54.90
2022-12-03T02:56:04.874Z,45.10
2022-12-03T02:58:37.125Z,53.30
2022-12-03T03:01:09.082Z,58.40
2022-12-03T03:03:41.205Z,45.30
2022-12-03T03:06:11.421Z,60.60
2022-12-03T03:08:43.393Z,95.10
2022-12-03T03:11:13.227Z,54.40
2022-12-03T03:13:43.316Z,58.30
2022-12-03T03:16:13.794Z,56.00
2022-12-03T03:18:43.836Z,59.20
2022-12-03T03:21:14.028Z,48.90
2022-12-03T03:23:43.251Z,46.80
2022-12-03T03:26:15.657Z,58.00
2022-12-03T03:28:49.851Z,72.60
2022-12-03T03:31:23.893Z,60.40
2022-12-03T03:33:54.043Z,45.90
2022-12-03T03:36:26.198Z,50.30
2022-12-03T03:38:56.111Z,45.90
2022-12-03T03:41:27.523Z,85.40
2022-12-03T03:43:58.782Z,82.50
2022-12-03T03:46:30.131Z,107.80
2022-12-03T03:49:03.342Z,122.30
2022-12-03T03:51:37.580Z,82.70
2022-12-03T03:54:08.214Z,75.60
2022-12-03T03:56:39.095Z,152.80
2022-12-03T03:59:09.245Z,136.20
2022-12-03T04:01:39.502Z,58.10
2022-12-03T04:04:21.067Z,71.10
2022-12-03T04:06:51.078Z,86.70
2022-12-03T04:09:20.433Z,67.30
2022-12-03T04:12:08.364Z,67.10
2022-12-03T04:14:39.698Z,80.10
2022-12-03T04:19:38.813Z,73.70
2022-12-03T04:22:26.449Z,54.60
2022-12-03T04:25:15.625Z,69.60
2022-12-03T04:28:04.780Z,58.70
2022-12-03T04:30:34.005Z,72.90
2022-12-03T04:33:23.273Z,83.10
2022-12-03T04:35:53.585Z,69.10
2022-12-03T04:38:23.673Z,83.90
2022-12-03T04:41:03.338Z,59.30
2022-12-03T04:43:35.357Z,76.00
2022-12-03T04:46:04.327Z,72.90
2022-12-03T04:48:33.979Z,60.90
2022-12-03T04:51:03.304Z,51.30
2022-12-03T04:53:36.251Z,60.00
2022-12-03T04:56:06.400Z,47.20
2022-12-03T04:58:35.289Z,44.10
2022-12-03T05:01:04.721Z,40.90
2022-12-03T05:03:33.685Z,37.60
2022-12-03T05:06:02.989Z,28.50
2022-12-03T05:08:31.869Z,47.20
2022-12-03T05:11:01.265Z,44.40
2022-12-03T05:13:30.262Z,43.60
2022-12-03T05:15:59.057Z,41.90
2022-12-03T05:18:28.080Z,42.90
2022-12-03T05:20:57.068Z,39.50
2022-12-03T05:23:26.350Z,54.70
2022-12-03T05:25:56.044Z,39.40
2022-12-03T05:28:25.356Z,44.40
2022-12-03T05:30:55.230Z,37.80
2022-12-03T05:33:24.161Z,44.30
2022-12-03T05:35:54.065Z,40.60
2022-12-03T05:38:22.972Z,52.30
2022-12-03T05:40:52.154Z,29.40
2022-12-03T05:43:21.472Z,48.00
2022-12-03T05:45:51.437Z,38.40
2022-12-03T05:48:20.387Z,40.00
2022-12-03T05:50:49.976Z,42.10
2022-12-03T05:53:19.073Z,44.30
2022-12-03T05:55:48.466Z,37.40
2022-12-03T05:58:17.773Z,41.50
2022-12-03T06:00:46.559Z,40.60
2022-12-03T06:03:15.983Z,38.50
2022-12-03T06:05:45.053Z,45.80
2022-12-03T06:08:14.632Z,37.50
2022-12-03T06:10:43.858Z,64.30
2022-12-03T06:13:12.780Z,32.50
2022-12-03T06:15:44.001Z,39.50
2022-12-03T06:18:13.493Z,26.90
2022-12-03T06:20:42.179Z,41.20
2022-12-03T06:23:10.867Z,36.60
2022-12-03T06:25:41.109Z,42.90
2022-12-03T06:28:10.077Z,65.60
2022-12-03T06:30:38.969Z,42.90
2022-12-03T06:33:07.760Z,41.80
2022-12-03T06:35:37.263Z,47.50
2022-12-03T06:38:06.258Z,84.90
2022-12-03T06:40:35.246Z,57.10
2022-12-03T06:43:04.338Z,40.20
2022-12-03T06:45:33.231Z,37.10
2022-12-03T06:48:02.017Z,26.20
2022-12-03T06:50:31.113Z,40.20
2022-12-03T06:53:00.107Z,45.20
2022-12-03T06:55:28.895Z,35.50
2022-12-03T06:57:57.573Z,30.00
2022-12-03T07:00:26.163Z,33.90
2022-12-03T07:02:54.916Z,21.20
2022-12-03T07:05:23.838Z,33.10
2022-12-03T07:07:55.771Z,26.10
2022-12-03T07:10:24.701Z,28.80
2022-12-03T07:12:53.580Z,33.30
2022-12-03T07:15:22.470Z,40.30
2022-12-03T07:17:51.465Z,38.50
2022-12-03T07:20:20.251Z,42.50
2022-12-03T07:22:48.835Z,37.10
2022-12-03T07:25:22.826Z,35.90
2022-12-03T07:27:52.552Z,42.20
2022-12-03T07:30:22.159Z,41.90
2022-12-03T07:32:50.648Z,46.90
2022-12-03T07:35:19.533Z,39.90
2022-12-03T07:37:48.221Z,35.50
2022-12-03T07:40:18.028Z,41.20
2022-12-03T07:42:46.612Z,44.00
2022-12-03T07:45:15.503Z,42.40
2022-12-03T07:47:44.187Z,36.20
2022-12-03T07:50:13.093Z,32.30
2022-12-03T07:52:41.863Z,50.60
2022-12-03T07:55:11.927Z,43.80
2022-12-03T07:57:40.671Z,45.40
2022-12-03T08:00:11.074Z,34.00
2022-12-03T08:02:39.619Z,29.80
2022-12-03T08:05:09.293Z,32.00
2022-12-03T08:07:38.018Z,34.20
2022-12-03T08:10:08.020Z,37.60
2022-12-03T08:12:42.517Z,30.70
2022-12-03T08:15:12.866Z,30.10
2022-12-03T08:17:42.774Z,28.20
2022-12-03T08:20:16.947Z,37.00
2022-12-03T08:22:47.700Z,35.70
2022-12-03T08:25:25.515Z,35.90
2022-12-03T08:28:02.965Z,32.00
2022-12-03T08:30:31.680Z,30.80
2022-12-03T08:33:00.268Z,29.80
2022-12-03T08:35:31.634Z,33.70
2022-12-03T08:38:12.036Z,24.80
2022-12-03T08:40:43.785Z,34.70
2022-12-03T08:43:24.907Z,28.60
2022-12-03T08:45:57.898Z,36.80
2022-12-03T08:48:34.258Z,34.30
2022-12-03T08:51:20.760Z,36.30
2022-12-03T08:54:01.723Z,29.10
2022-12-03T08:56:37.073Z,26.30
2022-12-03T08:59:27.059Z,26.60
2022-12-03T09:01:57.207Z,25.40
2022-12-03T09:04:45.806Z,27.00
2022-12-03T09:07:14.511Z,24.90
2022-12-03T09:09:43.124Z,30.90
2022-12-03T09:12:11.985Z,27.20
2022-12-03T09:14:40.465Z,30.00
2022-12-03T09:17:09.215Z,32.50
2022-12-03T09:19:44.267Z,25.10
2022-12-03T09:22:15.740Z,24.90
2022-12-03T09:24:44.732Z,29.20
2022-12-03T09:27:13.322Z,27.10
2022-12-03T09:29:42.104Z,25.60
2022-12-03T09:32:16.669Z,28.20
2022-12-03T09:34:47.875Z,25.00
2022-12-03T09:37:16.863Z,22.30
2022-12-03T09:39:45.516Z,21.60
2022-12-03T09:42:15.878Z,20.30
2022-12-03T09:44:44.866Z,20.80
2022-12-03T09:47:14.068Z,22.20
2022-12-03T09:49:43.471Z,18.40
2022-12-03T09:52:21.178Z,19.30
2022-12-03T09:54:50.156Z,17.30
2022-12-03T09:57:19.760Z,18.60
2022-12-03T09:59:48.446Z,16.70
2022-12-03T10:02:29.942Z,15.30
2022-12-03T10:04:58.893Z,20.70
2022-12-03T10:07:27.796Z,18.80
2022-12-03T10:09:56.934Z,17.30
2022-12-03T10:12:27.036Z,19.60
2022-12-03T10:14:56.236Z,22.00
2022-12-03T10:17:25.122Z,19.60
2022-12-03T10:19:54.394Z,19.50
2022-12-03T10:22:23.309Z,20.50
2022-12-03T10:25:10.755Z,14.90
2022-12-03T10:27:40.468Z,18.70
2022-12-03T10:30:19.823Z,18.60
2022-12-03T10:32:51.065Z,15.50
2022-12-03T10:35:25.149Z,18.60
2022-12-03T10:38:02.423Z,20.00
2022-12-03T10:40:37.968Z,16.90
2022-12-03T10:43:15.664Z,16.40
2022-12-03T10:45:49.065Z,15.40
2022-12-03T10:48:25.878Z,13.70
2022-12-03T10:51:02.409Z,15.60
2022-12-03T10:53:33.712Z,22.10
2022-12-03T10:56:06.398Z,18.90
2022-12-03T10:58:36.860Z,21.90
2022-12-03T11:01:23.747Z,21.40
2022-12-03T11:03:54.129Z,20.90
2022-12-03T11:06:24.320Z,24.80
2022-12-03T11:08:58.746Z,21.10
2022-12-03T11:11:31.525Z,20.80
2022-12-03T11:14:04.514Z,24.20
2022-12-03T11:16:42.136Z,21.10
2022-12-03T11:19:13.860Z,22.30
2022-12-03T11:22:07.536Z,23.80
2022-12-03T11:24:38.161Z,25.30
2022-12-03T11:27:11.975Z,21.90
2022-12-03T11:29:51.512Z,18.50
2022-12-03T11:32:38.730Z,22.30
2022-12-03T11:35:29.008Z,20.90
2022-12-03T11:38:35.798Z,18.30
2022-12-03T11:41:31.105Z,20.50
2022-12-03T11:44:31.450Z,24.10
2022-12-03T11:47:07.928Z,21.80
2022-12-03T11:49:39.763Z,20.60
2022-12-03T11:52:25.441Z,21.50
2022-12-03T11:55:01.512Z,21.00
2022-12-03T11:57:34.009Z,19.90
2022-12-03T12:00:11.882Z,18.80
2022-12-03T12:02:44.449Z,17.70
2022-12-03T12:05:27.068Z,18.20
2022-12-03T12:07:57.287Z,18.10
2022-12-03T12:10:48.374Z,21.40
2022-12-03T12:15:55.407Z,16.20
2022-12-03T12:18:53.707Z,20.80
2022-12-03T12:21:44.989Z,20.40
2022-12-03T12:27:04.994Z,20.70
2022-12-03T12:29:35.113Z,19.60
2022-12-03T12:32:09.891Z,20.90
2022-12-03T12:34:39.454Z,19.80
2022-12-03T12:37:23.390Z,18.20
2022-12-03T12:39:56.724Z,14.60
2022-12-03T12:42:36.432Z,15.10
2022-12-03T12:45:08.390Z,22.80
2022-12-03T12:47:37.250Z,17.60
2022-12-03T12:50:11.293Z,18.00
2022-12-03T12:52:49.807Z,19.10
2022-12-03T12:55:19.383Z,18.90
2022-12-03T12:57:48.005Z,22.50
2022-12-03T13:00:23.926Z,22.70
2022-12-03T13:03:00.229Z,21.40
2022-12-03T13:05:56.771Z,27.40
2022-12-03T13:08:31.182Z,24.20
2022-12-03T13:11:05.684Z,23.60
2022-12-03T13:13:37.406Z,18.90
2022-12-03T13:16:23.642Z,18.60
2022-12-03T13:19:00.033Z,19.40
2022-12-03T13:21:43.036Z,20.30
2022-12-03T13:24:38.450Z,18.80
2022-12-03T13:27:32.220Z,19.40
2022-12-03T13:30:16.060Z,25.50
2022-12-03T13:32:44.751Z,26.70
2022-12-03T13:35:36.427Z,25.30
2022-12-03T13:38:14.153Z,27.10
2022-12-03T13:40:43.161Z,21.60
2022-12-03T13:43:20.867Z,22.90
2022-12-03T13:45:51.668Z,25.30
2022-12-03T13:48:31.652Z,26.30
2022-12-03T13:51:21.425Z,29.60
2022-12-03T13:53:50.315Z,26.40
2022-12-03T13:56:30.881Z,28.40
2022-12-03T13:59:01.103Z,31.70
2022-12-03T14:01:30.488Z,31.40
2022-12-03T14:03:59.221Z,31.30
2022-12-03T14:06:28.188Z,26.10
2022-12-03T14:08:56.971Z,28.10
2022-12-03T14:11:44.096Z,28.40
2022-12-03T14:14:12.880Z,31.70
2022-12-03T14:16:41.509Z,30.20
2022-12-03T14:19:10.559Z,23.30
2022-12-03T14:21:39.647Z,27.10
2022-12-03T14:24:08.436Z,24.00
2022-12-03T14:26:37.024Z,23.50
2022-12-03T14:29:08.707Z,23.10
2022-12-03T14:31:37.838Z,20.90
2022-12-03T14:34:06.561Z,22.00
2022-12-03T14:36:35.201Z,28.30
2022-12-03T14:39:03.931Z,26.40
2022-12-03T14:41:51.869Z,25.20
2022-12-03T14:44:23.918Z,27.80
2022-12-03T14:46:56.742Z,25.90
2022-12-03T14:49:26.319Z,24.80
2022-12-03T14:51:55.106Z,25.80
2022-12-03T14:54:23.894Z,23.00
2022-12-03T14:56:52.476Z,23.00
2022-12-03T14:59:27.194Z,23.50
2022-12-03T15:01:56.707Z,23.20
2022-12-03T15:04:26.111Z,23.50
2022-12-03T15:06:54.695Z,24.90
2022-12-03T15:09:23.992Z,25.30
2022-12-03T15:11:52.884Z,24.00
2022-12-03T15:14:23.720Z,27.80
2022-12-03T15:16:52.600Z,27.20
2022-12-03T15:19:21.602Z,25.40
2022-12-03T15:21:50.085Z,27.40
2022-12-03T15:24:18.871Z,34.40
2022-12-03T15:26:47.356Z,47.30
2022-12-03T15:29:16.038Z,53.60
2022-12-03T15:31:44.881Z,49.30
2022-12-03T15:34:18.779Z,60.20
2022-12-03T15:36:51.577Z,55.30
2022-12-03T15:39:20.202Z,50.10
2022-12-03T15:41:49.806Z,56.50
2022-12-03T15:44:18.594Z,62.30
2022-12-03T15:46:47.287Z,65.50
2022-12-03T15:49:16.166Z,56.10
2022-12-03T15:51:44.753Z,64.00
2022-12-03T15:54:13.442Z,57.90
2022-12-03T15:56:42.943Z,56.40
2022-12-03T15:59:11.525Z,54.60
2022-12-03T16:01:40.359Z,55.30
2022-12-03T16:04:17.498Z,59.80
2022-12-03T16:06:47.009Z,83.90
2022-12-03T16:09:15.587Z,67.70
2022-12-03T16:11:44.171Z,66.00
2022-12-03T16:14:12.753Z,64.40
2022-12-03T16:16:41.339Z,62.30
2022-12-03T16:19:09.920Z,52.20
2022-12-03T16:21:39.239Z,59.00
2022-12-03T16:24:09.031Z,57.90
2022-12-03T16:26:37.870Z,57.50
2022-12-03T16:29:06.509Z,62.90
2022-12-03T16:31:35.130Z,62.10
2022-12-03T16:34:03.784Z,58.10
2022-12-03T16:36:32.559Z,47.10
2022-12-03T16:39:01.141Z,47.70
2022-12-03T16:41:29.771Z,47.50
2022-12-03T16:43:59.134Z,45.60
2022-12-03T16:46:27.674Z,49.20
2022-12-03T16:48:58.207Z,73.20
2022-12-03T16:51:28.579Z,67.90
2022-12-03T16:53:57.250Z,65.70
2022-12-03T16:56:25.842Z,75.10
2022-12-03T16:58:54.932Z,77.70
2022-12-03T17:03:53.945Z,69.90
2022-12-03T17:06:22.726Z,63.90
2022-12-03T17:08:51.524Z,57.00
2022-12-03T17:11:20.103Z,66.00
2022-12-03T17:13:48.800Z,54.10
2022-12-03T17:16:17.515Z,63.10
2022-12-03T17:18:46.354Z,63.80
2022-12-03T17:21:15.048Z,63.30
2022-12-03T17:23:45.063Z,63.00
2022-12-03T17:26:15.692Z,79.70
2022-12-03T17:28:44.992Z,93.70
2022-12-03T17:31:14.149Z,76.80
2022-12-03T17:33:42.875Z,71.50
2022-12-03T17:36:11.766Z,64.00
2022-12-03T17:38:40.856Z,54.50
2022-12-03T17:41:09.542Z,57.00
2022-12-03T17:43:38.130Z,71.20
2022-12-03T17:46:07.699Z,66.60
2022-12-03T17:48:36.422Z,61.20
2022-12-03T17:51:05.156Z,93.20
2022-12-03T17:53:33.586Z,90.00
2022-12-03T17:56:02.375Z,65.80
2022-12-03T17:58:31.059Z,90.70
2022-12-03T18:01:03.126Z,58.70
2022-12-03T18:03:31.933Z,63.40
2022-12-03T18:06:00.801Z,55.80
2022-12-03T18:08:29.249Z,86.40
2022-12-03T18:10:57.866Z,78.80
2022-12-03T18:13:26.663Z,82.10
2022-12-03T18:15:55.289Z,92.50
2022-12-03T18:18:24.433Z,93.90
2022-12-03T18:20:53.963Z,80.90
2022-12-03T18:23:22.521Z,77.30
2022-12-03T18:25:51.273Z,84.60
2022-12-03T18:28:20.204Z,71.60
2022-12-03T18:30:52.518Z,94.70
2022-12-03T18:33:23.600Z,89.10
2022-12-03T18:35:57.511Z,94.80
2022-12-03T18:38:33.094Z,88.30
2022-12-03T18:41:01.752Z,64.10
2022-12-03T18:43:30.439Z,84.00
2022-12-03T18:45:59.325Z,104.30
2022-12-03T18:48:27.816Z,122.90
2022-12-03T18:50:56.798Z,103.40
2022-12-03T18:53:25.381Z,122.60
2022-12-03T18:55:53.880Z,99.10
2022-12-03T18:58:22.448Z,116.60
2022-12-03T19:00:51.160Z,99.50
2022-12-03T19:03:19.909Z,83.60
2022-12-03T19:05:48.813Z,88.90
2022-12-03T19:08:20.051Z,82.70
2022-12-03T19:10:59.802Z,99.10
2022-12-03T19:13:28.905Z,114.60
2022-12-03T19:15:57.672Z,105.90
2022-12-03T19:18:26.470Z,90.40
2022-12-03T19:20:55.367Z,83.50
2022-12-03T19:23:24.456Z,88.80
2022-12-03T19:26:01.396Z,95.40
2022-12-03T19:28:29.917Z,116.60
2022-12-03T19:31:03.679Z,98.80
2022-12-03T19:33:33.166Z,99.50
2022-12-03T19:36:04.064Z,104.90
2022-12-03T19:38:33.468Z,95.10
2022-12-03T19:41:07.952Z,149.10
2022-12-03T19:43:38.342Z,65.20
2022-12-03T19:46:08.927Z,86.80
2022-12-03T19:48:39.339Z,170.90
2022-12-03T19:51:32.964Z,100.70
2022-12-03T19:53:57.533Z,109.30
2022-12-03T19:56:26.219Z,82.60
2022-12-03T19:58:55.724Z,60.10
2022-12-03T20:01:27.007Z,71.60
2022-12-03T20:03:58.108Z,79.00
2022-12-03T20:06:29.806Z,79.50
2022-12-03T20:09:05.101Z,161.40
2022-12-03T20:11:34.801Z,137.10
2022-12-03T20:14:07.021Z,122.20
2022-12-03T20:16:36.741Z,67.00
2022-12-03T20:19:07.837Z,108.90
2022-12-03T20:21:37.553Z,108.70
2022-12-03T20:24:07.432Z,166.80
2022-12-03T20:26:36.139Z,185.30
2022-12-03T20:29:04.724Z,189.70
2022-12-03T20:31:33.662Z,139.70
2022-12-03T20:34:04.659Z,71.40
2022-12-03T20:36:33.442Z,80.80
2022-12-03T20:39:07.152Z,81.90
2022-12-03T20:41:36.756Z,112.20
2022-12-03T20:44:08.045Z,124.60
2022-12-03T20:46:36.762Z,100.10
2022-12-03T20:49:05.674Z,209.80
2022-12-03T20:51:34.262Z,155.80
2022-12-03T20:54:03.208Z,128.70
2022-12-03T20:56:34.766Z,209.30
2022-12-03T20:59:06.674Z,89.00
2022-12-03T21:01:36.596Z,75.10
2022-12-03T21:06:36.401Z,98.20
2022-12-03T21:09:07.089Z,267.10
2022-12-03T21:11:39.147Z,455.60
2022-12-03T21:14:08.617Z,231.60
2022-12-03T21:17:07.352Z,60.90
2022-12-03T21:19:28.508Z,86.20
2022-12-03T21:21:57.323Z,148.10
2022-12-03T21:24:25.985Z,280.20
2022-12-03T21:26:54.672Z,189.70
2022-12-03T21:29:25.097Z,286.20
2022-12-03T21:31:53.992Z,102.80
2022-12-03T21:34:22.878Z,77.20
2022-12-03T21:36:51.561Z,252.30
2022-12-03T21:39:20.247Z,72.40
2022-12-03T21:42:19.006Z,85.00
2022-12-03T21:44:38.711Z,117.10
2022-12-03T21:47:10.610Z,183.80
2022-12-03T21:49:41.827Z,65.60
2022-12-03T21:52:11.527Z,124.70
2022-12-03T21:54:40.111Z,85.90
2022-12-03T21:57:08.796Z,43.50
2022-12-03T21:59:37.582Z,35.30
2022-12-03T22:02:06.477Z,56.40
2022-12-03T22:04:35.473Z,37.90
2022-12-03T22:07:04.810Z,71.20
2022-12-03T22:09:34.169Z,43.30
2022-12-03T22:12:02.752Z,316.00
2022-12-03T22:14:32.182Z,231.30
2022-12-03T22:17:00.746Z,58.00
2022-12-03T22:19:29.624Z,50.80
2022-12-03T22:21:58.415Z,78.80
2022-12-03T22:24:27.006Z,68.50
2022-12-03T22:26:56.195Z,50.50
2022-12-03T22:29:25.097Z,35.70
2022-12-03T22:31:53.978Z,59.50
2022-12-03T22:34:23.595Z,136.60
2022-12-03T22:36:52.379Z,54.30
2022-12-03T22:39:21.367Z,38.80
2022-12-03T22:41:50.255Z,116.90
2022-12-03T22:44:19.585Z,160.10
2022-12-03T22:46:48.378Z,44.40
2022-12-03T22:49:17.045Z,83.80
2022-12-03T22:51:47.071Z,53.80
2022-12-03T22:54:20.901Z,47.90
2022-12-03T22:56:52.615Z,61.10
2022-12-03T22:59:21.605Z,26.10
2022-12-03T23:01:50.597Z,38.50
2022-12-03T23:04:19.894Z,25.20
2022-12-03T23:06:48.886Z,29.00
2022-12-03T23:09:17.920Z,26.00
2022-12-03T23:11:47.181Z,34.00
2022-12-03T23:14:16.171Z,32.40
2022-12-03T23:16:45.065Z,31.20
2022-12-03T23:19:15.090Z,42.20
2022-12-03T23:21:43.659Z,27.60
2022-12-03T23:24:12.667Z,24.20
2022-12-03T23:26:41.550Z,20.40
2022-12-03T23:29:11.160Z,25.20
2022-12-03T23:31:40.231Z,47.90
2022-12-03T23:34:09.396Z,48.60
2022-12-03T23:36:38.441Z,37.30
2022-12-03T23:39:07.329Z,26.00
2022-12-03T23:41:36.732Z,26.90
2022-12-03T23:44:06.036Z,26.50
2022-12-03T23:46:35.685Z,25.70
2022-12-03T23:49:04.626Z,23.00
2022-12-03T23:51:34.653Z,23.30
2022-12-03T23:54:03.749Z,26.70
2022-12-03T23:56:32.947Z,28.70
2022-12-03T23:59:02.095Z,30.90
